GCGO weather

San Sebastián De La Gomera Heliport
La Gomera Island, Canary Islands, Spain

Public forecast

Using degrees Celsius for public forecast. Weather courtesy of forecast.io.

METAR (pilot weather report)

Closest report is La Gomera Airport, 7.2 nm (13.3 km) SW. Retrieved 2019/05/25 20:30 UTC (0 seconds ago):

GCGM 252030Z AUTO VRB02KT 9999 FEW009 BKN014 19/16 Q1017 RMK R09/00000KT ARP/VRB02KT

TAF (pilot weather forecast)

Closest forecast is La Gomera Airport, 7.2 nm (13.3 km) SW. Retrieved 2019/05/25 21:00 UTC (0 seconds ago):

TAF GCGM 252000Z 2521/2621 VRB04KT 9999 FEW025 TX24/2614Z TN17/2606Z BECMG 2609/2611 22010KT